createdAt,value
2018-09-29T00:01:41.442Z,66.62
2018-09-29T00:06:36.690Z,69.69
2018-09-29T00:11:31.545Z,67.85
2018-09-29T00:16:26.428Z,68.87
2018-09-29T00:21:21.283Z,69.31
2018-09-29T00:26:16.225Z,69.59
2018-09-29T00:31:11.074Z,68.62
2018-09-29T00:36:06.232Z,68.44
2018-09-29T00:41:01.065Z,69.44
2018-09-29T00:45:56.070Z,69.12
2018-09-29T00:50:50.938Z,70.41
2018-09-29T00:55:45.901Z,69.70
2018-09-29T01:00:40.810Z,70.88
2018-09-29T01:05:35.624Z,71.42
2018-09-29T01:10:30.457Z,70.13
2018-09-29T01:15:25.473Z,70.61
2018-09-29T01:20:20.323Z,70.81
2018-09-29T01:25:15.287Z,71.64
2018-09-29T01:30:10.119Z,71.64
2018-09-29T01:35:05.767Z,71.46
2018-09-29T01:40:00.589Z,71.40
2018-09-29T01:44:55.451Z,73.29
2018-09-29T01:49:50.288Z,72.77
2018-09-29T01:54:45.126Z,72.22
2018-09-29T01:59:39.953Z,73.71
2018-09-29T02:04:34.766Z,72.74
2018-09-29T02:09:29.669Z,71.61
2018-09-29T02:14:24.477Z,72.40
2018-09-29T02:19:19.311Z,73.54
2018-09-29T02:24:14.208Z,73.56
2018-09-29T02:29:09.181Z,72.68
2018-09-29T02:34:04.127Z,72.20
2018-09-29T02:38:59.071Z,71.92
2018-09-29T02:43:53.925Z,73.10
2018-09-29T02:48:48.802Z,72.71
2018-09-29T02:53:43.783Z,71.75
2018-09-29T02:58:38.618Z,72.69
2018-09-29T03:03:34.126Z,72.67
2018-09-29T03:08:29.003Z,71.78
2018-09-29T03:13:24.190Z,73.01
2018-09-29T03:18:19.004Z,72.40
2018-09-29T03:23:14.505Z,72.40
2018-09-29T03:28:09.286Z,72.83
2018-09-29T03:33:04.098Z,72.54
2018-09-29T03:37:59.678Z,71.03
2018-09-29T03:42:54.517Z,71.41
2018-09-29T03:47:49.558Z,71.35
2018-09-29T03:52:44.382Z,71.05
2018-09-29T03:57:39.272Z,70.13
2018-09-29T04:02:34.172Z,70.81
2018-09-29T04:07:29.012Z,68.60
2018-09-29T04:12:23.870Z,68.92
2018-09-29T04:17:18.785Z,68.97
2018-09-29T04:22:13.613Z,69.04
2018-09-29T04:27:08.440Z,68.58
2018-09-29T04:32:05.240Z,68.31
2018-09-29T04:37:00.557Z,67.86
2018-09-29T04:41:55.414Z,68.16
2018-09-29T04:46:50.174Z,69.10
2018-09-29T04:51:45.014Z,69.43
2018-09-29T04:56:39.826Z,69.97
2018-09-29T05:01:34.709Z,68.61
2018-09-29T05:06:30.639Z,67.97
2018-09-29T05:11:26.301Z,69.63
2018-09-29T05:16:21.157Z,67.91
2018-09-29T05:21:16.400Z,69.88
2018-09-29T05:26:12.498Z,70.22
2018-09-29T05:31:07.321Z,71.09
2018-09-29T05:36:02.169Z,69.66
2018-09-29T05:40:58.019Z,71.71
2018-09-29T05:45:52.917Z,68.43
2018-09-29T05:50:47.790Z,68.88
2018-09-29T05:55:42.614Z,69.78
2018-09-29T06:00:37.585Z,68.00
2018-09-29T06:05:32.444Z,68.25
2018-09-29T06:10:27.514Z,66.98
2018-09-29T06:15:22.366Z,69.29
2018-09-29T06:20:17.367Z,67.06
2018-09-29T06:25:12.214Z,67.91
2018-09-29T06:30:07.341Z,68.15
2018-09-29T06:35:02.201Z,66.35
2018-09-29T06:39:57.287Z,67.70
2018-09-29T06:44:52.140Z,67.69
2018-09-29T06:49:46.988Z,68.85
2018-09-29T06:54:41.911Z,68.24
2018-09-29T06:59:40.960Z,68.11
2018-09-29T07:04:35.915Z,66.58
2018-09-29T07:09:31.022Z,66.48
2018-09-29T07:14:25.932Z,66.69
2018-09-29T07:19:20.796Z,65.80
2018-09-29T07:24:15.692Z,66.99
2018-09-29T07:29:11.091Z,62.96
2018-09-29T07:34:06.121Z,63.89
2018-09-29T07:39:01.122Z,63.55
2018-09-29T07:43:56.070Z,62.59
2018-09-29T07:48:51.045Z,61.22
2018-09-29T07:53:47.247Z,59.32
2018-09-29T07:58:42.153Z,59.89
2018-09-29T08:03:37.855Z,62.03
2018-09-29T08:08:32.823Z,60.23
2018-09-29T08:13:27.714Z,61.04
2018-09-29T08:18:22.594Z,58.22
2018-09-29T08:23:17.645Z,59.40
2018-09-29T08:28:12.596Z,58.81
2018-09-29T08:33:07.749Z,57.30
2018-09-29T08:38:02.618Z,59.57
2018-09-29T08:42:57.481Z,58.15
2018-09-29T08:47:52.289Z,58.04
2018-09-29T08:52:47.264Z,56.16
2018-09-29T08:57:42.244Z,56.36
2018-09-29T09:02:37.168Z,55.88
2018-09-29T09:07:38.525Z,57.42
2018-09-29T09:12:33.832Z,56.77
2018-09-29T09:17:29.315Z,55.81
2018-09-29T09:22:24.173Z,55.48
2018-09-29T09:27:19.261Z,57.16
2018-09-29T09:32:15.899Z,55.48
2018-09-29T09:37:10.814Z,54.44
2018-09-29T09:42:06.089Z,54.97
2018-09-29T09:47:01.299Z,53.98
2018-09-29T09:51:56.553Z,55.13
2018-09-29T09:56:51.449Z,55.06
2018-09-29T10:01:51.262Z,54.09
2018-09-29T10:06:51.268Z,54.53
2018-09-29T10:11:46.324Z,54.96
2018-09-29T10:16:41.495Z,55.37
2018-09-29T10:21:36.585Z,56.43
2018-09-29T10:26:31.760Z,55.90
2018-09-29T10:31:27.429Z,56.82
2018-09-29T10:36:22.545Z,56.67
2018-09-29T10:41:17.425Z,56.12
2018-09-29T10:46:12.509Z,56.46
2018-09-29T10:51:07.770Z,55.55
2018-09-29T10:56:02.700Z,55.34
2018-09-29T11:00:57.558Z,56.67
2018-09-29T11:05:52.467Z,56.25
2018-09-29T11:10:48.223Z,54.29
2018-09-29T11:15:43.516Z,56.11
2018-09-29T11:20:39.823Z,55.71
2018-09-29T11:25:39.738Z,56.89
2018-09-29T11:30:34.682Z,57.10
2018-09-29T11:35:30.182Z,55.71
2018-09-29T11:40:25.157Z,55.44
2018-09-29T11:45:20.224Z,55.00
2018-09-29T11:50:15.172Z,56.40
2018-09-29T11:55:10.097Z,56.25
2018-09-29T12:00:06.578Z,54.96
2018-09-29T12:05:02.390Z,55.33
2018-09-29T12:09:58.090Z,53.04
2018-09-29T12:14:53.890Z,55.10
2018-09-29T12:19:50.499Z,54.34
2018-09-29T12:24:45.511Z,53.74
2018-09-29T12:29:40.443Z,54.39
2018-09-29T12:34:35.903Z,55.02
2018-09-29T12:39:33.818Z,54.38
2018-09-29T12:44:31.560Z,53.18
2018-09-29T12:49:26.700Z,55.28
2018-09-29T12:54:22.215Z,55.62
2018-09-29T12:59:17.399Z,53.77
2018-09-29T13:04:12.308Z,54.98
2018-09-29T13:09:09.118Z,53.31
2018-09-29T13:14:04.579Z,54.08
2018-09-29T13:18:59.764Z,54.59
2018-09-29T13:23:54.857Z,55.66
2018-09-29T13:28:50.550Z,53.55
2018-09-29T13:33:46.990Z,53.93
2018-09-29T13:38:42.099Z,53.01
2018-09-29T13:43:37.070Z,53.78
2018-09-29T13:48:32.470Z,53.85
2018-09-29T13:53:27.401Z,53.29
2018-09-29T13:58:22.840Z,55.15
2018-09-29T14:03:18.987Z,55.00
2018-09-29T14:08:13.960Z,54.95
2018-09-29T14:13:09.057Z,53.81
2018-09-29T14:18:04.037Z,55.75
2018-09-29T14:23:00.832Z,54.03
2018-09-29T14:27:55.831Z,53.21
2018-09-29T14:32:51.046Z,53.76
2018-09-29T14:37:47.606Z,53.50
2018-09-29T14:42:43.348Z,54.71
2018-09-29T14:47:38.398Z,53.76
2018-09-29T14:52:33.605Z,54.51
2018-09-29T14:57:30.353Z,54.07
2018-09-29T15:02:25.667Z,56.57
2018-09-29T15:07:21.428Z,54.22
2018-09-29T15:12:16.624Z,54.82
2018-09-29T15:17:11.807Z,55.39
2018-09-29T15:22:06.928Z,56.41
2018-09-29T15:27:02.106Z,56.14
2018-09-29T15:31:58.113Z,55.40
2018-09-29T15:36:53.238Z,55.15
2018-09-29T15:41:48.910Z,55.45
2018-09-29T15:46:45.664Z,56.65
2018-09-29T15:51:40.797Z,56.50
2018-09-29T15:56:35.984Z,57.45
2018-09-29T16:01:31.577Z,56.19
2018-09-29T16:06:26.469Z,57.62
2018-09-29T16:11:21.614Z,58.63
2018-09-29T16:16:16.503Z,57.67
2018-09-29T16:21:11.441Z,58.21
2018-09-29T16:26:06.675Z,58.57
2018-09-29T16:31:01.678Z,58.68
2018-09-29T16:35:56.614Z,59.22
2018-09-29T16:40:51.614Z,58.69
2018-09-29T16:45:46.640Z,60.02
2018-09-29T16:50:41.613Z,60.90
2018-09-29T16:55:36.624Z,58.94
2018-09-29T17:00:31.703Z,59.74
2018-09-29T17:05:27.423Z,60.17
2018-09-29T17:10:22.509Z,60.58
2018-09-29T17:15:17.795Z,59.90
2018-09-29T17:20:12.912Z,60.87
2018-09-29T17:25:08.188Z,62.38
2018-09-29T17:30:03.241Z,61.64
2018-09-29T17:34:58.225Z,61.78
2018-09-29T17:39:53.227Z,60.93
2018-09-29T17:44:48.311Z,61.97
2018-09-29T17:49:43.294Z,61.39
2018-09-29T17:54:38.222Z,60.96
2018-09-29T17:59:33.199Z,61.01
2018-09-29T18:04:28.876Z,61.13
2018-09-29T18:09:23.794Z,60.97
2018-09-29T18:14:19.456Z,61.13
2018-09-29T18:19:14.469Z,61.07
2018-09-29T18:24:09.677Z,61.82
2018-09-29T18:29:05.366Z,60.87
2018-09-29T18:34:00.682Z,60.43
2018-09-29T18:38:57.337Z,60.38
2018-09-29T18:43:59.786Z,60.93
2018-09-29T18:48:54.663Z,61.94
2018-09-29T18:53:51.789Z,61.03
2018-09-29T18:58:46.797Z,60.41
2018-09-29T19:03:44.797Z,60.31
2018-09-29T19:08:40.335Z,60.28
2018-09-29T19:13:36.642Z,59.98
2018-09-29T19:18:33.555Z,60.59
2018-09-29T19:23:29.518Z,61.85
2018-09-29T19:28:24.640Z,60.80
2018-09-29T19:33:19.587Z,62.23
2018-09-29T19:38:14.777Z,62.96
2018-09-29T19:43:09.898Z,61.83
2018-09-29T19:48:04.954Z,63.18
2018-09-29T19:52:59.971Z,64.57
2018-09-29T19:57:55.329Z,63.62
2018-09-29T20:02:50.812Z,64.19
2018-09-29T20:07:45.836Z,64.73
2018-09-29T20:12:41.432Z,63.44
2018-09-29T20:17:37.067Z,65.24
2018-09-29T20:22:32.204Z,65.41
2018-09-29T20:27:27.155Z,65.56
2018-09-29T20:32:23.130Z,66.07
2018-09-29T20:37:18.091Z,65.87
2018-09-29T20:42:13.693Z,68.36
2018-09-29T20:47:08.594Z,67.46
2018-09-29T20:52:04.284Z,67.93
2018-09-29T20:56:59.352Z,66.58
2018-09-29T21:01:54.852Z,68.57
2018-09-29T21:06:49.906Z,68.41
2018-09-29T21:11:44.848Z,68.74
2018-09-29T21:16:39.893Z,68.17
2018-09-29T21:21:34.892Z,68.50
2018-09-29T21:26:30.014Z,69.23
2018-09-29T21:31:24.990Z,70.74
2018-09-29T21:36:20.056Z,70.96
2018-09-29T21:41:15.013Z,70.72
2018-09-29T21:46:09.971Z,71.78
2018-09-29T21:51:04.987Z,72.02
2018-09-29T21:55:59.915Z,71.91
2018-09-29T22:00:54.881Z,73.04
2018-09-29T22:05:49.897Z,72.41
2018-09-29T22:10:45.150Z,72.58
2018-09-29T22:15:40.146Z,73.49
2018-09-29T22:20:35.093Z,73.29
2018-09-29T22:25:29.995Z,72.73
2018-09-29T22:30:25.813Z,73.98
2018-09-29T22:35:20.778Z,73.52
2018-09-29T22:40:15.701Z,73.92
2018-09-29T22:45:10.752Z,75.08
2018-09-29T22:50:06.166Z,74.21
2018-09-29T22:55:01.085Z,74.78
2018-09-29T22:59:56.773Z,73.95
2018-09-29T23:04:51.764Z,74.65
2018-09-29T23:09:46.857Z,75.09
2018-09-29T23:14:41.771Z,75.83
2018-09-29T23:19:36.818Z,76.51
2018-09-29T23:24:31.820Z,76.54
2018-09-29T23:29:27.795Z,75.47
2018-09-29T23:34:22.758Z,75.58
2018-09-29T23:39:18.359Z,76.46
2018-09-29T23:44:13.369Z,76.93
2018-09-29T23:49:08.435Z,76.41
2018-09-29T23:54:03.407Z,75.91
2018-09-29T23:58:58.274Z,76.42
